地図

経路データ

SID SEASON NUMBER BASIN SUBBASIN NAME ISO_TIME NATURE LAT LON WMO_WIND WMO_PRES WMO_AGENCY TRACK_TYPE DIST2LAND LANDFALL IFLAG USA_AGENCY USA_ATCF_ID USA_LAT USA_LON USA_RECORD USA_STATUS USA_WIND USA_PRES USA_SSHS USA_R34_NE USA_R34_SE USA_R34_SW USA_R34_NW USA_R50_NE USA_R50_SE USA_R50_SW USA_R50_NW USA_R64_NE USA_R64_SE USA_R64_SW USA_R64_NW USA_POCI USA_ROCI USA_RMW USA_EYE TOKYO_LAT TOKYO_LON TOKYO_GRADE TOKYO_WIND TOKYO_PRES TOKYO_R50_DIR TOKYO_R50_LONG TOKYO_R50_SHORT TOKYO_R30_DIR TOKYO_R30_LONG TOKYO_R30_SHORT TOKYO_LAND CMA_LAT CMA_LON CMA_CAT CMA_WIND CMA_PRES HKO_LAT HKO_LON HKO_CAT HKO_WIND HKO_PRES NEWDELHI_LAT NEWDELHI_LON NEWDELHI_GRADE NEWDELHI_WIND NEWDELHI_PRES NEWDELHI_CI NEWDELHI_DP NEWDELHI_POCI REUNION_LAT REUNION_LON REUNION_TYPE REUNION_WIND REUNION_PRES REUNION_TNUM REUNION_CI REUNION_RMW REUNION_R34_NE REUNION_R34_SE REUNION_R34_SW REUNION_R34_NW REUNION_R50_NE REUNION_R50_SE REUNION_R50_SW REUNION_R50_NW REUNION_R64_NE REUNION_R64_SE REUNION_R64_SW REUNION_R64_NW BOM_LAT BOM_LON BOM_TYPE BOM_WIND BOM_PRES BOM_TNUM BOM_CI BOM_RMW BOM_R34_NE BOM_R34_SE BOM_R34_SW BOM_R34_NW BOM_R50_NE BOM_R50_SE BOM_R50_SW BOM_R50_NW BOM_R64_NE BOM_R64_SE BOM_R64_SW BOM_R64_NW BOM_ROCI BOM_POCI BOM_EYE BOM_POS_METHOD BOM_PRES_METHOD NADI_LAT NADI_LON NADI_CAT NADI_WIND NADI_PRES WELLINGTON_LAT WELLINGTON_LON WELLINGTON_WIND WELLINGTON_PRES DS824_LAT DS824_LON DS824_STAGE DS824_WIND DS824_PRES TD9636_LAT TD9636_LON TD9636_STAGE TD9636_WIND TD9636_PRES TD9635_LAT TD9635_LON TD9635_WIND TD9635_PRES TD9635_ROCI NEUMANN_LAT NEUMANN_LON NEUMANN_CLASS NEUMANN_WIND NEUMANN_PRES MLC_LAT MLC_LON MLC_CLASS MLC_WIND MLC_PRES USA_GUST BOM_GUST BOM_GUST_PER REUNION_GUST REUNION_GUST_PER USA_SEAHGT USA_SEARAD_NE USA_SEARAD_SE USA_SEARAD_SW USA_SEARAD_NW STORM_SPEED STORM_DIR
1970326N10071 1970 150 NI AS NOT_NAMED 1970-11-21 18:00:00 TS 9.80000 71.4000 main 482 482 O________O____ jtwc_io IO131970 9.80000 71.4000 -1 9.80000 71.4000 TC 3 288
1970326N10071 1970 150 NI AS NOT_NAMED 1970-11-21 21:00:00 TS 9.85001 71.2500 main 486 486 P________P____ IO131970 9.85001 71.2500 -1 9.85001 71.2500 TC 3 289
1970326N10071 1970 150 NI AS NOT_NAMED 1970-11-22 00:00:00 TS 9.90000 71.1000 main 505 505 O________O____ jtwc_io IO131970 9.90000 71.1000 -1 9.90000 71.1000 TC 25 3 289
1970326N10071 1970 150 NI AS NOT_NAMED 1970-11-22 03:00:00 TS 9.95555 70.9444 main 520 520 P________PO___ IO131970 9.94999 70.9500 -1 9.94999 70.9500 TC 25 10.0000 70.9000 1 3 290
1970326N10071 1970 150 NI AS NOT_NAMED 1970-11-22 06:00:00 TS 10.0085 70.7913 main 530 530 O________OP___ jtwc_io IO131970 10.0000 70.8000 -1 10.0000 70.8000 TC 25 10.0423 70.7563 1 3 288
1970326N10071 1970 150 NI AS NOT_NAMED 1970-11-22 09:00:00 TS 10.0548 70.6364 main 544 544 P________PP___ IO131970 10.0425 70.6425 -1 10.0425 70.6425 TC 25 10.0876 70.6201 1 3 290
1970326N10071 1970 150 NI AS NOT_NAMED 1970-11-22 12:00:00 TS 10.1131 70.4996 main 554 554 O________OP___ jtwc_io IO131970 10.1000 70.5000 -1 10.1000 70.5000 TC 25 10.1392 70.4988 1 3 302
1970326N10071 1970 150 NI AS NOT_NAMED 1970-11-22 15:00:00 TS 10.2000 70.3950 main 559 559 P________PO___ IO131970 10.2000 70.3925 -1 10.2000 70.3925 TC 25 10.2000 70.4000 1 3 313
1970326N10071 1970 150 NI AS NOT_NAMED 1970-11-22 18:00:00 TS 10.2906 70.3084 main 563 563 O________OP___ jtwc_io IO131970 10.3000 70.3000 -1 10.3000 70.3000 TC 25 10.2717 70.3253 1 2 312
1970326N10071 1970 150 NI AS NOT_NAMED 1970-11-22 21:00:00 TS 10.3499 70.2225 main 573 568 P________PP___ IO131970 10.3500 70.2075 -1 10.3500 70.2075 TC 25 10.3498 70.2524 1 2 303
1970326N10071 1970 150 NI AS NOT_NAMED 1970-11-23 00:00:00 TS 10.4093 70.1178 main 578 573 O________OP___ jtwc_io IO131970 10.4000 70.1000 -1 10.4000 70.1000 TC 25 10.4279 70.1534 1 3 304
1970326N10071 1970 150 NI AS NOT_NAMED 1970-11-23 03:00:00 TS 10.4999 69.9967 main 583 583 P________PO___ IO131970 10.4999 69.9950 -1 10.4999 69.9950 TC 25 10.5000 70.0000 1 4 299
1970326N10071 1970 150 NI AS NOT_NAMED 1970-11-23 06:00:00 TS 10.5939 69.7764 main 597 597 O________OP___ jtwc_io IO131970 10.6000 69.8000 -1 10.6000 69.8000 TC 25 10.5818 69.7292 1 6 285
1970326N10071 1970 150 NI AS NOT_NAMED 1970-11-23 09:00:00 TS 10.6611 69.4026 main 633 633 P________PP___ IO131970 10.6652 69.4000 -1 10.6652 69.4000 TC 25 10.6529 69.4077 1 7 278
1970326N10071 1970 150 NI AS NOT_NAMED 1970-11-23 12:00:00 TS 10.6992 69.0274 main 674 674 O________OP___ jtwc_io IO131970 10.7000 69.0000 -1 10.7000 69.0000 TC 25 10.6975 69.0823 1 6 276
1970326N10071 1970 150 NI AS NOT_NAMED 1970-11-23 15:00:00 TS 10.7199 68.8083 main 694 694 P________PO___ IO131970 10.7299 68.8125 -1 10.7299 68.8125 TC 25 10.7000 68.8000 1 3 268
1970326N10071 1970 150 NI AS NOT_NAMED 1970-11-23 18:00:00 TS 10.6864 68.6749 main 704 704 O________OP___ jtwc_io IO131970 10.7000 68.7000 -1 10.7000 68.7000 TC 25 10.6592 68.6246 1 3 242
1970326N10071 1970 150 NI AS NOT_NAMED 1970-11-23 21:00:00 TS 10.5733 68.5275 main 729 729 P________PP___ IO131970 10.5725 68.5425 -1 10.5725 68.5425 TC 25 10.5748 68.4975 1 4 225
1970326N10071 1970 150 NI AS NOT_NAMED 1970-11-24 00:00:00 TS 10.4177 68.3989 main 747 747 O________OP___ jtwc_io IO131970 10.4000 68.4000 -1 10.4000 68.4000 TC 25 10.4530 68.3966 1 4 217
1970326N10071 1970 150 NI AS NOT_NAMED 1970-11-24 03:00:00 TS 10.2767 68.3000 main 761 761 P________PO___ IO131970 10.2650 68.3000 -1 10.2650 68.3000 TC 25 10.3000 68.3000 1 4 212
1970326N10071 1970 150 NI AS NOT_NAMED 1970-11-24 06:00:00 TS 10.1001 68.1957 main 780 780 O________OP___ jtwc_io IO131970 10.1000 68.2000 -1 10.1000 68.2000 TC 25 10.1003 68.1871 1 5 209
1970326N10071 1970 150 NI AS NOT_NAMED 1970-11-24 09:00:00 TS 9.84915 68.0574 main 804 804 P________PP___ IO131970 9.83501 68.0499 -1 9.83501 68.0499 TC 25 9.87743 68.0724 1 6 210
1970326N10071 1970 150 NI AS NOT_NAMED 1970-11-24 12:00:00 TS 9.62196 67.9155 main 833 833 O________OP___ jtwc_io IO131970 9.60000 67.9000 -1 9.60000 67.9000 TC 25 9.66588 67.9465 1 4 217
1970326N10071 1970 150 NI AS NOT_NAMED 1970-11-24 15:00:00 TS 9.51332 67.8050 main 848 848 P________PO___ IO131970 9.51997 67.8075 -1 9.51997 67.8075 TC 25 9.50000 67.8000 1 3 237
1970326N10071 1970 150 NI AS NOT_NAMED 1970-11-24 18:00:00 TS 9.47350 67.6834 main 858 858 O________OP___ jtwc_io IO131970 9.50000 67.7000 -1 9.50000 67.7000 TC 25 9.42050 67.6501 1 3 253
1970326N10071 1970 150 NI AS NOT_NAMED 1970-11-24 21:00:00 TS 9.42490 67.5167 main 883 883 P________PP___ IO131970 9.44246 67.5375 -1 9.44246 67.5375 TC 25 9.38979 67.4751 1 4 259
1970326N10071 1970 150 NI AS NOT_NAMED 1970-11-25 00:00:00 TS 9.39640 67.2875 main 903 903 O________OP___ jtwc_io IO131970 9.40000 67.3000 -1 9.40000 67.3000 TC 25 9.38919 67.2626 1 5 267
1970326N10071 1970 150 NI AS NOT_NAMED 1970-11-25 03:00:00 TS 9.39501 66.9817 main 932 932 P________PO___ IO131970 9.39252 66.9725 -1 9.39252 66.9725 TC 25 9.40000 67.0000 1 7 270
1970326N10071 1970 150 NI AS NOT_NAMED 1970-11-25 06:00:00 TS 9.39899 66.6251 main 972 972 O________OP___ jtwc_io IO131970 9.40000 66.6000 -1 9.40000 66.6000 TC 25 9.39697 66.6754 1 7 270
1970326N10071 1970 150 NI AS NOT_NAMED 1970-11-25 09:00:00 TS 9.40000 66.2725 main 1003 1003 P________PP___ IO131970 9.39994 66.2575 -1 9.39994 66.2575 TC 25 9.40012 66.3026 1 7 270
1970326N10071 1970 150 NI AS NOT_NAMED 1970-11-25 12:00:00 TS 9.40106 65.9012 main 1043 1043 O________OP___ jtwc_io IO131970 9.40000 65.9000 -1 9.40000 65.9000 TC 25 9.40319 65.9035 1 8 270
1970326N10071 1970 150 NI AS NOT_NAMED 1970-11-25 15:00:00 TS 9.40500 65.5000 main 1084 1084 P________PO___ IO131970 9.40750 65.5000 -1 9.40750 65.5000 TC 25 9.40000 65.5000 1 8 270
1970326N10071 1970 150 NI AS NOT_NAMED 1970-11-25 18:00:00 TS 9.39540 65.1043 main 1125 1125 O________OP___ jtwc_io IO131970 9.40000 65.1000 -1 9.40000 65.1000 TC 25 9.38622 65.1128 1 8 266
1970326N10071 1970 150 NI AS NOT_NAMED 1970-11-25 21:00:00 TS 9.35495 64.7375 main 1166 1142 P________PP___ IO131970 9.34994 64.7425 -1 9.34994 64.7425 TC 25 9.36497 64.7275 1 7 263
1970326N10071 1970 150 NI AS NOT_NAMED 1970-11-26 00:00:00 TS 9.31208 64.3845 main 1142 1101 O________OP___ jtwc_io IO131970 9.30000 64.4000 -1 9.30000 64.4000 TC 25 9.33624 64.3535 1 7 266
1970326N10071 1970 150 NI AS NOT_NAMED 1970-11-26 03:00:00 TS 9.29999 64.0284 main 1101 1070 P________PO___ IO131970 9.29999 64.0425 -1 9.29999 64.0425 TC 25 9.30000 64.0000 1 7 268
1970326N10071 1970 150 NI AS NOT_NAMED 1970-11-26 06:00:00 TS 9.28570 63.6874 main 1070 1040 O________OP___ jtwc_io IO131970 9.30000 63.7000 -1 9.30000 63.7000 TC 25 9.25710 63.6622 1 7 265
1970326N10071 1970 150 NI AS NOT_NAMED 1970-11-26 09:00:00 TS 9.24078 63.3725 main 1044 1013 P________PP___ IO131970 9.25747 63.3850 -1 9.25747 63.3850 TC 25 9.20741 63.3475 1 6 260
1970326N10071 1970 150 NI AS NOT_NAMED 1970-11-26 12:00:00 TS 9.18467 63.0864 main 1013 988 O________OP___ jtwc_io IO131970 9.20000 63.1000 -1 9.20000 63.1000 TC 25 9.15401 63.0591 1 6 259
1970326N10071 1970 150 NI AS NOT_NAMED 1970-11-26 15:00:00 TS 9.13333 62.8183 main 988 967 P________PO___ IO131970 9.14999 62.8275 -1 9.14999 62.8275 TC 25 9.10000 62.8000 1 5 258
1970326N10071 1970 150 NI AS NOT_NAMED 1970-11-26 18:00:00 TS 9.08586 62.6135 main 967 958 O________OP___ jtwc_io IO131970 9.10000 62.6000 -1 9.10000 62.6000 TC 25 9.05757 62.6404 1 3 255
1970326N10071 1970 150 NI AS NOT_NAMED 1970-11-26 21:00:00 TS 9.04297 62.4809 main 962 942 P________PP___ IO131970 9.05740 62.4725 -1 9.05740 62.4725 TC 25 9.01412 62.4977 1 3 252
1970326N10071 1970 150 NI AS NOT_NAMED 1970-11-27 00:00:00 TS 8.98788 62.3020 main 942 918 O________OP___ jtwc_io IO131970 9.00000 62.3000 -1 9.00000 62.3000 TC 25 8.96365 62.3061 1 5 254
1970326N10071 1970 150 NI AS NOT_NAMED 1970-11-27 03:00:00 TS 8.90493 61.9833 main 918 875 P________PO___ IO131970 8.90740 61.9750 -1 8.90740 61.9750 TC 25 8.90000 62.0000 1 8 257
1970326N10071 1970 150 NI AS NOT_NAMED 1970-11-27 06:00:00 TS 8.80896 61.5018 main 875 824 O________OP___ jtwc_io IO131970 8.80000 61.5000 -1 8.80000 61.5000 TC 25 8.82687 61.5052 1 11 260
1970326N10071 1970 150 NI AS NOT_NAMED 1970-11-27 09:00:00 TS 8.71264 60.8941 main 824 767 P________PP___ IO131970 8.70002 60.8950 -1 8.70002 60.8950 TC 25 8.73788 60.8924 1 13 261
1970326N10071 1970 150 NI AS NOT_NAMED 1970-11-27 12:00:00 TS 8.60996 60.2028 main 767 714 O________OP___ jtwc_io IO131970 8.60000 60.2000 -1 8.60000 60.2000 TC 25 8.62988 60.2084 1 14 262
1970326N10071 1970 150 NI AS NOT_NAMED 1970-11-27 15:00:00 TS 8.50997 59.5001 main 714 665 P________PO___ IO131970 8.51495 59.5001 -1 8.51495 59.5001 TC 30 8.50000 59.5000 1 14 261
1970326N10071 1970 150 NI AS NOT_NAMED 1970-11-27 18:00:00 TS 8.38485 58.8104 main 665 636 O________OP___ jtwc_io IO131970 8.40000 58.8000 -1 8.40000 58.8000 TC 35 8.35455 58.8313 1 14 257
1970326N10071 1970 150 NI AS NOT_NAMED 1970-11-27 21:00:00 TS 8.20568 58.1450 main 630 610 P________PP___ IO131970 8.21486 58.1425 -1 8.21486 58.1425 TC 35 8.18734 58.1500 1 14 254
1970326N10071 1970 150 NI AS NOT_NAMED 1970-11-28 00:00:00 TS 8.00048 57.4896 main 610 592 O________OP___ jtwc_io IO131970 8.00000 57.5000 -1 8.00000 57.5000 TC 35 8.00143 57.4688 1 14 253
1970326N10071 1970 150 NI AS NOT_NAMED 1970-11-28 03:00:00 TS 7.80493 56.8334 main 590 578 P________PO___ IO131970 7.80740 56.8501 -1 7.80740 56.8501 TC 35 7.80000 56.8000 3 14 253
1970326N10071 1970 150 NI AS NOT_NAMED 1970-11-28 06:00:00 TS 7.59448 56.1812 main 579 571 O________OP___ jtwc_io IO131970 7.60000 56.2000 -1 7.60000 56.2000 TC 35 7.58621 56.1530 3 14 251
1970326N10071 1970 150 NI AS NOT_NAMED 1970-11-28 09:00:00 TS 7.36140 55.5391 main 562 519 P________PP___ IO131970 7.36019 55.5498 -1 7.36019 55.5498 TC 30 7.36302 55.5247 3 14 249
1970326N10071 1970 150 NI AS NOT_NAMED 1970-11-28 12:00:00 TS 7.11666 54.9045 main 519 473 O________OP___ jtwc_io IO131970 7.10000 54.9000 -1 7.10000 54.9000 TC 25 7.13331 54.9090 3 13 249
1970326N10071 1970 150 NI AS NOT_NAMED 1970-11-28 15:00:00 NR 6.90000 54.3000 main 473 __________O___ IO131970 -1 TC 6.90000 54.3000 1 13 250

IBTrACS Databaseについて

本データベースは、米国NOAAが公開する1842年以降の世界の熱帯低気圧のベストトラックデータアーカイブInternational Best Track Archive for Climate Stewardship (IBTrACS)を、ウェブで閲覧しやすい形式に変換したものです。

最終更新日:2021-12-03